createdAt,value
2022-11-29T00:00:08.241Z,85.42
2022-11-29T00:00:55.105Z,85.91
2022-11-29T00:01:42.390Z,86.04
2022-11-29T00:02:29.300Z,86.44
2022-11-29T00:03:16.639Z,86.39
2022-11-29T00:04:04.220Z,86.29
2022-11-29T00:04:50.998Z,86.54
2022-11-29T00:05:37.783Z,86.73
2022-11-29T00:06:29.625Z,86.84
2022-11-29T00:07:16.423Z,86.69
2022-11-29T00:08:03.642Z,86.88
2022-11-29T00:08:50.796Z,86.95
2022-11-29T00:09:37.658Z,87.11
2022-11-29T00:10:24.437Z,87.37
2022-11-29T00:11:41.029Z,87.40
2022-11-29T00:12:27.895Z,87.42
2022-11-29T00:13:14.755Z,88.03
2022-11-29T00:14:01.794Z,87.93
2022-11-29T00:14:48.577Z,87.92
2022-11-29T00:15:37.082Z,88.05
2022-11-29T00:16:23.967Z,88.25
2022-11-29T00:17:10.913Z,88.22
2022-11-29T00:17:57.808Z,88.32
2022-11-29T00:18:44.978Z,88.09
2022-11-29T00:19:33.615Z,87.99
2022-11-29T00:20:20.429Z,88.45
2022-11-29T00:21:08.329Z,88.83
2022-11-29T00:21:55.206Z,89.28
2022-11-29T00:22:42.065Z,89.30
2022-11-29T00:23:28.942Z,89.22
2022-11-29T00:24:15.816Z,89.56
2022-11-29T00:25:02.678Z,89.49
2022-11-29T00:25:49.461Z,89.47
2022-11-29T00:26:37.359Z,89.15
2022-11-29T00:27:24.192Z,89.62
2022-11-29T00:28:10.991Z,89.50
2022-11-29T00:28:57.817Z,89.51
2022-11-29T00:29:44.612Z,89.81
2022-11-29T00:30:31.409Z,89.85
2022-11-29T00:31:24.271Z,89.84
2022-11-29T00:32:11.002Z,89.96
2022-11-29T00:32:58.080Z,89.64
2022-11-29T00:33:45.335Z,89.51
2022-11-29T00:34:32.123Z,89.59
2022-11-29T00:35:19.008Z,89.79
2022-11-29T00:36:06.096Z,89.83
2022-11-29T00:36:52.985Z,89.77
2022-11-29T00:37:39.844Z,89.72
2022-11-29T00:38:28.197Z,89.70
2022-11-29T00:39:16.536Z,90.30
2022-11-29T00:40:04.622Z,90.00
2022-11-29T00:40:52.667Z,90.30
2022-11-29T00:41:40.059Z,90.88
2022-11-29T00:42:26.935Z,90.97
2022-11-29T00:43:13.662Z,90.85
2022-11-29T00:44:00.730Z,90.89
2022-11-29T00:44:47.691Z,91.08
2022-11-29T00:45:34.564Z,91.19
2022-11-29T00:46:22.024Z,91.54
2022-11-29T00:47:08.946Z,91.72
2022-11-29T00:47:55.730Z,91.68
2022-11-29T00:48:42.524Z,91.75
2022-11-29T00:49:29.341Z,91.76
2022-11-29T00:50:16.145Z,91.67
2022-11-29T00:51:03.786Z,91.92
2022-11-29T00:51:50.650Z,92.08
2022-11-29T00:52:37.515Z,92.20
2022-11-29T00:53:24.331Z,92.26
2022-11-29T00:54:11.193Z,93.13
2022-11-29T00:54:58.017Z,93.34
2022-11-29T00:55:45.729Z,93.03
2022-11-29T00:56:32.558Z,93.01
2022-11-29T00:57:19.343Z,92.69
2022-11-29T00:58:06.454Z,92.49
2022-11-29T00:58:53.231Z,92.56
2022-11-29T00:59:39.983Z,92.61
2022-11-29T01:00:27.164Z,92.75
2022-11-29T01:01:14.457Z,93.14
2022-11-29T01:02:01.445Z,93.50
2022-11-29T01:02:48.321Z,93.49
2022-11-29T01:03:35.634Z,93.60
2022-11-29T01:04:22.436Z,93.32
2022-11-29T01:05:09.353Z,93.37
2022-11-29T01:06:07.613Z,93.42
2022-11-29T01:06:54.362Z,93.28
2022-11-29T01:07:41.166Z,93.27
2022-11-29T01:08:28.207Z,93.37
2022-11-29T01:09:15.018Z,93.53
2022-11-29T01:10:01.784Z,93.43
2022-11-29T01:10:48.606Z,93.08
2022-11-29T01:11:35.797Z,93.07
2022-11-29T01:12:22.608Z,93.43
2022-11-29T01:13:10.094Z,93.79
2022-11-29T01:13:59.430Z,93.59
2022-11-29T01:14:46.373Z,93.47
2022-11-29T01:15:33.572Z,93.84
2022-11-29T01:16:20.532Z,93.77
2022-11-29T01:17:07.531Z,93.72
2022-11-29T01:17:54.728Z,93.82
2022-11-29T01:18:42.121Z,93.56
2022-11-29T01:19:28.885Z,93.41
2022-11-29T01:20:16.193Z,93.54
2022-11-29T01:21:06.605Z,93.57
2022-11-29T01:21:53.453Z,93.50
2022-11-29T01:22:40.599Z,93.65
2022-11-29T01:23:28.109Z,93.91
2022-11-29T01:24:14.918Z,93.75
2022-11-29T01:25:01.825Z,93.58
2022-11-29T01:25:56.780Z,93.47
2022-11-29T01:26:43.825Z,93.25
2022-11-29T01:27:30.883Z,93.23
2022-11-29T01:28:17.681Z,93.39
2022-11-29T01:29:04.497Z,93.43
2022-11-29T01:29:51.356Z,93.44
2022-11-29T01:30:38.242Z,93.57
2022-11-29T01:31:36.477Z,93.68
2022-11-29T01:32:23.344Z,93.73
2022-11-29T01:33:10.235Z,93.56
2022-11-29T01:33:59.161Z,93.19
2022-11-29T01:34:46.253Z,93.46
2022-11-29T01:35:33.272Z,93.56
2022-11-29T01:36:20.044Z,93.42
2022-11-29T01:37:06.877Z,93.32
2022-11-29T01:37:53.610Z,93.43
2022-11-29T01:38:40.786Z,93.48
2022-11-29T01:39:27.685Z,93.60
2022-11-29T01:40:14.511Z,93.95
2022-11-29T01:41:04.409Z,94.19
2022-11-29T01:41:51.245Z,94.23
2022-11-29T01:42:38.066Z,94.36
2022-11-29T01:43:25.095Z,94.50
2022-11-29T01:44:11.841Z,94.41
2022-11-29T01:45:08.679Z,94.46
2022-11-29T01:45:55.917Z,94.16
2022-11-29T01:46:45.199Z,94.14
2022-11-29T01:47:32.485Z,94.07
2022-11-29T01:48:22.285Z,94.06
2022-11-29T01:49:24.009Z,93.96
2022-11-29T01:50:11.112Z,93.95
2022-11-29T01:51:01.265Z,94.00
2022-11-29T01:51:52.099Z,94.07
2022-11-29T01:52:39.566Z,93.96
2022-11-29T01:53:27.080Z,94.16
2022-11-29T01:54:14.559Z,94.09
2022-11-29T01:55:03.443Z,94.28
2022-11-29T01:55:56.841Z,94.21
2022-11-29T01:56:45.637Z,94.28
2022-11-29T01:57:34.427Z,94.39
2022-11-29T01:58:21.584Z,94.82
2022-11-29T01:59:10.970Z,94.69
2022-11-29T02:00:03.580Z,94.56
2022-11-29T02:00:50.506Z,94.93
2022-11-29T02:01:37.835Z,94.91
2022-11-29T02:02:31.717Z,94.94
2022-11-29T02:03:19.404Z,95.02
2022-11-29T02:04:06.947Z,94.87
2022-11-29T02:04:53.973Z,94.62
2022-11-29T02:05:48.381Z,94.73
2022-11-29T02:06:36.356Z,94.59
2022-11-29T02:07:23.218Z,94.86
2022-11-29T02:08:11.981Z,94.92
2022-11-29T02:08:58.845Z,94.92
2022-11-29T02:09:45.634Z,95.12
2022-11-29T02:10:48.929Z,95.36
2022-11-29T02:11:52.057Z,95.66
2022-11-29T02:12:53.825Z,95.76
2022-11-29T02:13:48.141Z,95.72
2022-11-29T02:14:35.458Z,95.56
2022-11-29T02:15:36.931Z,95.67
2022-11-29T02:16:43.745Z,95.50
2022-11-29T02:17:40.553Z,95.33
2022-11-29T02:18:34.428Z,95.16
2022-11-29T02:19:57.492Z,95.10
2022-11-29T02:21:09.910Z,95.21
2022-11-29T02:22:05.601Z,95.27
2022-11-29T02:23:04.460Z,95.57
2022-11-29T02:24:28.817Z,96.01
2022-11-29T02:25:28.673Z,95.90
2022-11-29T02:27:09.972Z,95.92
2022-11-29T02:28:30.537Z,96.11
2022-11-29T02:29:54.698Z,96.53
2022-11-29T02:31:02.981Z,96.42
2022-11-29T02:32:26.037Z,96.46
2022-11-29T02:33:39.228Z,96.86
2022-11-29T02:34:56.694Z,97.24
2022-11-29T02:36:01.889Z,97.17
2022-11-29T02:37:00.850Z,96.84
2022-11-29T02:38:12.664Z,96.56
2022-11-29T02:39:25.313Z,96.55
2022-11-29T02:40:37.529Z,97.04
2022-11-29T02:41:48.355Z,97.30
2022-11-29T02:43:04.057Z,97.57
2022-11-29T02:43:50.888Z,97.51
2022-11-29T02:45:10.940Z,97.30
2022-11-29T02:46:13.132Z,97.38
2022-11-29T02:47:12.171Z,97.85
2022-11-29T02:48:26.375Z,97.32
2022-11-29T02:49:34.663Z,96.93
2022-11-29T02:50:55.060Z,96.79
2022-11-29T02:52:03.172Z,97.40
2022-11-29T02:53:14.556Z,97.58
2022-11-29T02:54:35.105Z,97.41
2022-11-29T02:55:29.822Z,97.26
2022-11-29T02:56:40.233Z,97.44
2022-11-29T02:57:37.518Z,97.54
2022-11-29T02:58:29.184Z,97.59
2022-11-29T02:59:38.643Z,97.90
2022-11-29T03:00:25.801Z,98.12
2022-11-29T03:01:40.866Z,98.26
2022-11-29T03:02:35.451Z,98.14
2022-11-29T03:03:29.532Z,97.97
2022-11-29T03:04:39.577Z,98.09
2022-11-29T03:05:47.828Z,97.73
2022-11-29T03:06:42.588Z,98.05
2022-11-29T03:07:45.583Z,98.20
2022-11-29T03:08:45.788Z,98.24
2022-11-29T03:09:58.640Z,98.11
2022-11-29T03:11:07.387Z,98.01
2022-11-29T03:12:13.829Z,98.22
2022-11-29T03:13:03.555Z,98.48
2022-11-29T03:14:16.784Z,98.34
2022-11-29T03:15:31.996Z,98.06
2022-11-29T03:16:43.860Z,98.07
2022-11-29T03:17:54.456Z,98.23
2022-11-29T03:19:06.271Z,98.22
2022-11-29T03:19:55.989Z,97.87
2022-11-29T03:21:04.867Z,97.53
2022-11-29T03:22:12.799Z,97.18
2022-11-29T03:23:10.326Z,97.21
2022-11-29T03:24:00.860Z,97.05
2022-11-29T03:25:00.320Z,97.01
2022-11-29T03:26:39.572Z,97.21
2022-11-29T03:27:41.395Z,96.77
2022-11-29T03:28:34.620Z,96.68
2022-11-29T03:29:38.438Z,96.33
2022-11-29T03:30:25.392Z,96.58
2022-11-29T03:31:21.329Z,96.63
2022-11-29T03:32:29.137Z,96.43
2022-11-29T03:33:15.877Z,96.02
2022-11-29T03:34:35.914Z,96.10
2022-11-29T03:35:58.012Z,95.92
2022-11-29T03:36:58.628Z,95.94
2022-11-29T03:38:08.132Z,96.15
2022-11-29T03:38:59.040Z,96.11
2022-11-29T03:39:57.815Z,96.30
2022-11-29T03:40:58.061Z,96.22
2022-11-29T03:41:58.886Z,96.41
2022-11-29T03:42:45.536Z,96.37
2022-11-29T03:44:09.158Z,96.38
2022-11-29T03:45:10.877Z,96.19
2022-11-29T03:46:03.985Z,96.04
2022-11-29T03:46:55.032Z,95.60
2022-11-29T03:48:07.612Z,95.76
2022-11-29T03:49:02.860Z,95.58
2022-11-29T03:50:13.775Z,95.81
2022-11-29T03:51:07.057Z,95.79
2022-11-29T03:52:20.864Z,95.65
2022-11-29T03:53:15.515Z,95.49
2022-11-29T03:54:04.829Z,95.65
2022-11-29T03:55:04.464Z,95.69
2022-11-29T03:55:55.503Z,95.93
2022-11-29T03:56:42.708Z,95.90
2022-11-29T03:57:34.784Z,95.98
2022-11-29T03:58:44.713Z,95.88
2022-11-29T03:59:31.504Z,96.00
2022-11-29T04:00:19.012Z,96.39
2022-11-29T04:01:37.867Z,96.34
2022-11-29T04:02:43.075Z,96.59
2022-11-29T04:04:07.709Z,96.26
2022-11-29T04:05:16.067Z,96.29
2022-11-29T04:06:11.722Z,96.43
2022-11-29T04:07:04.323Z,96.44
2022-11-29T04:08:16.069Z,96.49
2022-11-29T04:09:41.372Z,96.36
2022-11-29T04:11:19.587Z,95.63
2022-11-29T04:12:16.140Z,96.01
2022-11-29T04:13:45.438Z,96.08
2022-11-29T04:14:35.039Z,96.13
2022-11-29T04:15:50.104Z,96.11
2022-11-29T04:17:12.416Z,95.62
2022-11-29T04:18:02.061Z,95.59
2022-11-29T04:19:13.903Z,95.72
2022-11-29T04:20:19.050Z,95.79
2022-11-29T04:21:23.848Z,95.96
2022-11-29T04:22:38.806Z,95.62
2022-11-29T04:24:06.967Z,95.50
2022-11-29T04:25:15.092Z,95.86
2022-11-29T04:26:35.000Z,95.86
2022-11-29T04:27:59.203Z,95.79
2022-11-29T04:29:12.171Z,95.90
2022-11-29T04:30:09.994Z,95.42
2022-11-29T04:30:59.521Z,95.12
2022-11-29T04:32:39.791Z,95.27
2022-11-29T04:33:54.282Z,95.42
2022-11-29T04:34:40.988Z,95.53
2022-11-29T04:35:38.959Z,95.23
2022-11-29T04:36:34.664Z,94.82
2022-11-29T04:37:38.716Z,94.61
2022-11-29T04:38:32.945Z,94.27
2022-11-29T04:39:57.392Z,93.51
2022-11-29T04:41:14.400Z,93.74
2022-11-29T04:42:12.933Z,93.47
2022-11-29T04:43:30.611Z,93.86
2022-11-29T04:44:49.381Z,93.64
2022-11-29T04:46:11.395Z,93.62
2022-11-29T04:47:59.789Z,93.78
2022-11-29T04:49:21.266Z,94.29
2022-11-29T04:50:40.012Z,94.25
2022-11-29T04:51:33.187Z,93.95
2022-11-29T04:52:38.569Z,93.69
2022-11-29T04:53:40.623Z,93.69
2022-11-29T04:54:52.115Z,93.61
2022-11-29T04:55:43.092Z,93.54
2022-11-29T04:56:46.173Z,93.49
2022-11-29T04:57:42.023Z,93.69
2022-11-29T04:58:41.879Z,93.88
2022-11-29T04:59:34.639Z,94.01
2022-11-29T05:00:23.310Z,93.80
2022-11-29T05:01:33.397Z,93.82
2022-11-29T05:02:22.921Z,93.46
2022-11-29T05:03:34.640Z,93.49
2022-11-29T05:04:26.175Z,93.78
2022-11-29T05:05:47.421Z,94.04
2022-11-29T05:06:43.123Z,93.87
2022-11-29T05:07:51.916Z,93.78
2022-11-29T05:09:25.057Z,93.67
2022-11-29T05:10:38.069Z,93.99
2022-11-29T05:11:52.174Z,94.20
2022-11-29T05:12:46.148Z,94.28
2022-11-29T05:13:57.441Z,94.01
2022-11-29T05:15:08.500Z,93.98
2022-11-29T05:16:00.743Z,94.09
2022-11-29T05:17:09.340Z,94.16
2022-11-29T05:18:03.669Z,94.14
2022-11-29T05:19:04.562Z,94.23
2022-11-29T05:19:51.170Z,94.63
2022-11-29T05:20:55.707Z,94.66
2022-11-29T05:21:51.015Z,94.86
2022-11-29T05:23:06.562Z,95.29
2022-11-29T05:24:16.512Z,95.37
2022-11-29T05:25:36.435Z,95.47
2022-11-29T05:26:26.895Z,95.55
2022-11-29T05:27:33.912Z,95.35
2022-11-29T05:28:58.573Z,95.40
2022-11-29T05:30:08.241Z,95.54
2022-11-29T05:31:21.219Z,95.95
2022-11-29T05:32:17.025Z,95.74
2022-11-29T05:33:12.647Z,95.68
2022-11-29T05:34:34.908Z,95.51
2022-11-29T05:35:50.961Z,95.40
2022-11-29T05:36:46.632Z,95.46
2022-11-29T05:37:36.302Z,95.27
2022-11-29T05:38:40.526Z,95.20
2022-11-29T05:39:38.766Z,95.19
2022-11-29T05:40:56.491Z,95.25
2022-11-29T05:41:46.313Z,95.27
2022-11-29T05:42:58.212Z,95.12
2022-11-29T05:44:04.448Z,95.13
2022-11-29T05:44:57.599Z,94.92
2022-11-29T05:45:52.979Z,94.89
2022-11-29T05:46:56.043Z,94.77
2022-11-29T05:47:47.791Z,94.78
2022-11-29T05:48:51.467Z,94.94
2022-11-29T05:50:00.448Z,94.78
2022-11-29T05:51:15.267Z,94.71
2022-11-29T05:52:41.096Z,94.88
2022-11-29T05:54:12.878Z,95.06
2022-11-29T05:55:15.348Z,94.64
2022-11-29T05:56:36.371Z,95.02
2022-11-29T05:57:36.521Z,94.90
2022-11-29T05:58:30.849Z,94.90
2022-11-29T05:59:22.401Z,95.36
2022-11-29T06:00:14.709Z,95.65
2022-11-29T06:01:15.936Z,95.54
2022-11-29T06:02:15.891Z,95.53
2022-11-29T06:03:12.815Z,95.46
2022-11-29T06:04:11.688Z,95.36
2022-11-29T06:05:24.283Z,95.46
2022-11-29T06:06:17.250Z,95.31
2022-11-29T06:07:33.178Z,95.27
2022-11-29T06:08:30.405Z,95.39
2022-11-29T06:09:38.408Z,95.37
2022-11-29T06:10:28.849Z,94.87
2022-11-29T06:11:35.918Z,94.77
2022-11-29T06:12:24.989Z,94.71
2022-11-29T06:13:36.339Z,94.62
2022-11-29T06:14:41.901Z,94.37
2022-11-29T06:15:41.207Z,94.36
2022-11-29T06:16:36.690Z,94.35
2022-11-29T06:17:34.350Z,94.23
2022-11-29T06:18:54.877Z,94.26
2022-11-29T06:20:23.610Z,94.85
2022-11-29T06:21:26.089Z,95.15
2022-11-29T06:22:45.306Z,95.61
2022-11-29T06:23:57.933Z,95.26
2022-11-29T06:25:10.498Z,95.50
2022-11-29T06:26:26.787Z,95.73
2022-11-29T06:27:29.730Z,95.53
2022-11-29T06:29:13.663Z,95.57
2022-11-29T06:30:16.335Z,95.57
2022-11-29T06:31:15.094Z,95.21
2022-11-29T06:32:24.655Z,94.70
2022-11-29T06:33:23.210Z,94.94
2022-11-29T06:34:10.124Z,95.20
2022-11-29T06:35:03.820Z,95.30
2022-11-29T06:36:08.681Z,95.35
2022-11-29T06:37:20.793Z,95.38
2022-11-29T06:38:18.557Z,95.45
2022-11-29T06:39:06.027Z,95.60
2022-11-29T06:39:54.662Z,95.71
2022-11-29T06:40:41.734Z,95.70
2022-11-29T06:41:28.973Z,95.64
2022-11-29T06:42:15.779Z,95.52
2022-11-29T06:43:02.812Z,95.54
2022-11-29T06:43:50.409Z,95.50
2022-11-29T06:44:37.474Z,95.55
2022-11-29T06:45:26.602Z,95.41
2022-11-29T06:46:22.991Z,95.17
2022-11-29T06:47:18.179Z,95.08
2022-11-29T06:48:07.199Z,94.91
2022-11-29T06:49:02.679Z,94.64
2022-11-29T06:50:05.632Z,94.60
2022-11-29T06:51:01.342Z,94.37
2022-11-29T06:52:09.814Z,94.44
2022-11-29T06:53:02.527Z,94.39
2022-11-29T06:54:00.740Z,94.50
2022-11-29T06:54:54.176Z,94.44
2022-11-29T06:56:45.713Z,94.27
2022-11-29T06:59:11.299Z,92.91
2022-11-29T07:00:04.236Z,92.91
2022-11-29T07:01:15.525Z,93.51
2022-11-29T07:02:28.947Z,93.52
2022-11-29T07:03:38.613Z,93.38
2022-11-29T07:05:02.658Z,93.13
2022-11-29T07:05:49.843Z,93.11
2022-11-29T07:06:36.878Z,93.04
2022-11-29T07:07:24.157Z,93.17
2022-11-29T07:08:19.934Z,93.21
2022-11-29T07:09:19.953Z,93.22
2022-11-29T07:10:11.964Z,92.98
2022-11-29T07:11:01.771Z,92.84
2022-11-29T07:11:49.041Z,92.86
2022-11-29T07:12:36.287Z,92.76
2022-11-29T07:13:23.513Z,92.65
2022-11-29T07:14:10.664Z,92.40
2022-11-29T07:14:57.985Z,92.49
2022-11-29T07:15:53.709Z,92.53
2022-11-29T07:16:46.934Z,92.37
2022-11-29T07:17:57.112Z,92.43
2022-11-29T07:18:52.759Z,92.51
2022-11-29T07:20:13.186Z,91.86
2022-11-29T07:21:03.055Z,92.29
2022-11-29T07:22:01.890Z,92.73
2022-11-29T07:23:16.164Z,92.54
2022-11-29T07:24:20.344Z,92.17
2022-11-29T07:25:12.926Z,91.96
2022-11-29T07:26:34.975Z,91.77
2022-11-29T07:27:47.284Z,91.54
2022-11-29T07:28:43.404Z,91.65
2022-11-29T07:30:05.307Z,91.10
2022-11-29T07:31:04.189Z,91.28
2022-11-29T07:31:57.024Z,90.69
2022-11-29T07:33:02.311Z,90.65
2022-11-29T07:34:04.657Z,90.05
2022-11-29T07:35:06.833Z,89.96
2022-11-29T07:35:56.241Z,90.01
2022-11-29T07:37:01.700Z,89.90
2022-11-29T07:38:07.048Z,89.42
2022-11-29T07:39:10.459Z,89.03
2022-11-29T07:40:14.193Z,88.47
2022-11-29T07:41:22.634Z,88.69
2022-11-29T07:42:16.142Z,88.42
2022-11-29T07:43:51.322Z,88.19
2022-11-29T07:44:57.035Z,88.16
2022-11-29T07:45:43.921Z,88.55
2022-11-29T07:46:30.833Z,87.92
2022-11-29T07:47:17.810Z,88.03
2022-11-29T07:48:04.972Z,87.77
2022-11-29T07:48:52.024Z,87.94
2022-11-29T07:49:38.928Z,87.76
2022-11-29T07:50:26.636Z,87.78
2022-11-29T07:51:14.510Z,87.93
2022-11-29T07:52:01.387Z,87.77
2022-11-29T07:52:48.716Z,87.98
2022-11-29T07:53:40.540Z,87.96
2022-11-29T07:54:27.414Z,87.78
2022-11-29T07:55:18.748Z,87.89
2022-11-29T07:56:06.195Z,88.00
2022-11-29T07:56:52.998Z,87.83
2022-11-29T07:57:39.788Z,87.74
2022-11-29T07:58:26.646Z,87.67
2022-11-29T07:59:14.753Z,87.85
2022-11-29T08:00:01.598Z,87.87
2022-11-29T08:00:48.543Z,88.08
2022-11-29T08:01:35.677Z,87.28
2022-11-29T08:02:32.125Z,87.17
2022-11-29T08:03:19.017Z,87.29
2022-11-29T08:04:06.608Z,87.18
2022-11-29T08:04:53.871Z,87.14
2022-11-29T08:05:41.014Z,87.55
2022-11-29T08:06:27.855Z,87.87
2022-11-29T08:07:14.756Z,88.44
2022-11-29T08:08:02.098Z,88.85
2022-11-29T08:08:48.918Z,88.92
2022-11-29T08:09:36.141Z,87.87
2022-11-29T08:10:23.353Z,87.73
2022-11-29T08:11:11.923Z,88.03
2022-11-29T08:11:58.738Z,88.21
2022-11-29T08:12:48.171Z,87.55
2022-11-29T08:13:35.056Z,87.22
2022-11-29T08:14:21.861Z,87.27
2022-11-29T08:15:09.475Z,88.01
2022-11-29T08:15:56.368Z,87.84
2022-11-29T08:16:43.278Z,88.18
2022-11-29T08:17:30.231Z,88.46
2022-11-29T08:18:17.869Z,88.82
2022-11-29T08:19:05.076Z,89.04
2022-11-29T08:19:52.468Z,89.13
2022-11-29T08:20:41.439Z,88.31
2022-11-29T08:21:28.402Z,88.43
2022-11-29T08:22:15.269Z,88.47
2022-11-29T08:23:03.405Z,88.65
2022-11-29T08:23:50.912Z,88.33
2022-11-29T08:24:37.756Z,88.12
2022-11-29T08:25:25.700Z,88.24
2022-11-29T08:26:12.731Z,88.04
2022-11-29T08:26:59.662Z,87.59
2022-11-29T08:27:46.578Z,87.57
2022-11-29T08:28:33.445Z,87.75
2022-11-29T08:29:20.571Z,87.13
2022-11-29T08:30:08.947Z,86.83
2022-11-29T08:31:04.081Z,86.97
2022-11-29T08:31:53.679Z,87.27
2022-11-29T08:32:40.628Z,87.56
2022-11-29T08:33:27.556Z,87.01
2022-11-29T08:34:14.767Z,86.79
2022-11-29T08:35:01.813Z,86.80
2022-11-29T08:35:48.617Z,86.72
2022-11-29T08:36:35.722Z,86.91
2022-11-29T08:37:22.703Z,86.32
2022-11-29T08:38:09.567Z,86.03
2022-11-29T08:39:03.502Z,86.33
2022-11-29T08:39:55.397Z,86.20
2022-11-29T08:40:42.430Z,85.87
2022-11-29T08:41:30.380Z,85.75
2022-11-29T08:42:17.251Z,85.77
2022-11-29T08:43:04.100Z,86.16
2022-11-29T08:43:50.900Z,85.93
2022-11-29T08:44:37.776Z,85.85
2022-11-29T08:45:24.921Z,85.49
2022-11-29T08:46:16.859Z,85.07
2022-11-29T08:47:23.551Z,84.82
2022-11-29T08:48:10.453Z,84.86
2022-11-29T08:48:57.585Z,84.82
2022-11-29T08:50:02.910Z,85.43
2022-11-29T08:50:51.131Z,85.79
2022-11-29T08:51:37.977Z,85.33
2022-11-29T08:52:43.655Z,85.07
2022-11-29T08:53:42.942Z,84.85
2022-11-29T08:54:29.754Z,84.77
2022-11-29T08:55:17.825Z,84.86
2022-11-29T08:56:23.603Z,84.74
2022-11-29T08:57:41.743Z,84.89
2022-11-29T08:58:20.222Z,86.15
2022-11-29T08:59:07.125Z,86.44
2022-11-29T08:59:54.050Z,85.90
2022-11-29T09:00:41.923Z,85.32
2022-11-29T09:01:29.660Z,85.36
2022-11-29T09:02:16.682Z,85.34
2022-11-29T09:03:23.736Z,85.49
2022-11-29T09:04:12.091Z,85.17
2022-11-29T09:04:58.980Z,84.66
2022-11-29T09:05:45.825Z,84.76
2022-11-29T09:06:36.270Z,84.50
2022-11-29T09:07:23.304Z,84.57
2022-11-29T09:08:10.132Z,84.25
2022-11-29T09:08:58.189Z,83.99
2022-11-29T09:09:45.234Z,83.81
2022-11-29T09:10:32.175Z,84.50
2022-11-29T09:11:24.489Z,84.95
2022-11-29T09:12:11.315Z,84.95
2022-11-29T09:12:58.111Z,84.80
2022-11-29T09:13:46.741Z,84.19
2022-11-29T09:14:33.643Z,83.63
2022-11-29T09:15:20.611Z,83.08
2022-11-29T09:16:13.434Z,82.99
2022-11-29T09:17:00.730Z,83.48
2022-11-29T09:17:47.669Z,83.87
2022-11-29T09:18:34.567Z,83.92
2022-11-29T09:19:21.535Z,83.87
2022-11-29T09:20:09.097Z,83.98
2022-11-29T09:20:55.889Z,84.05
2022-11-29T09:21:42.763Z,83.22
2022-11-29T09:22:29.594Z,82.86
2022-11-29T09:23:16.399Z,83.05
2022-11-29T09:24:06.739Z,83.17
2022-11-29T09:24:53.608Z,83.79
2022-11-29T09:25:40.617Z,82.94
2022-11-29T09:26:29.954Z,83.33
2022-11-29T09:27:16.861Z,83.13
2022-11-29T09:28:04.211Z,83.13
2022-11-29T09:28:51.136Z,83.26
2022-11-29T09:29:38.155Z,83.51
2022-11-29T09:30:25.022Z,83.53
2022-11-29T09:31:14.090Z,83.37
2022-11-29T09:32:01.105Z,82.90
2022-11-29T09:32:47.978Z,82.36
2022-11-29T09:33:35.384Z,82.49
2022-11-29T09:34:22.297Z,82.43
2022-11-29T09:35:09.422Z,82.16
2022-11-29T09:35:58.769Z,82.35
2022-11-29T09:36:45.771Z,82.65
2022-11-29T09:37:32.851Z,83.55
2022-11-29T09:38:23.563Z,84.01
2022-11-29T09:39:11.101Z,83.45
2022-11-29T09:39:57.903Z,83.54
2022-11-29T09:40:58.257Z,83.68
2022-11-29T09:42:22.661Z,83.30
2022-11-29T09:43:18.791Z,83.96
2022-11-29T09:44:25.094Z,83.49
2022-11-29T09:45:18.806Z,83.54
2022-11-29T09:46:38.126Z,83.62
2022-11-29T09:47:44.977Z,84.02
2022-11-29T09:49:16.778Z,84.05
2022-11-29T09:50:43.349Z,83.57
2022-11-29T09:51:48.968Z,82.41
2022-11-29T09:53:21.059Z,82.24
2022-11-29T09:54:16.844Z,81.64
2022-11-29T09:55:10.410Z,81.93
2022-11-29T09:56:05.762Z,81.08
2022-11-29T09:56:53.601Z,81.38
2022-11-29T09:57:44.155Z,81.17
2022-11-29T09:58:38.319Z,81.23
2022-11-29T09:59:33.210Z,81.25
2022-11-29T10:00:20.785Z,80.28
2022-11-29T10:01:12.775Z,80.77
2022-11-29T10:02:31.092Z,80.91
2022-11-29T10:03:29.292Z,81.17
2022-11-29T10:04:20.139Z,79.92
2022-11-29T10:05:13.887Z,80.18
2022-11-29T10:06:06.898Z,80.55
2022-11-29T10:07:04.189Z,80.99
2022-11-29T10:08:27.968Z,80.55
2022-11-29T10:09:22.237Z,80.79
2022-11-29T10:10:21.386Z,80.43
2022-11-29T10:11:30.513Z,80.34
2022-11-29T10:12:32.504Z,80.26
2022-11-29T10:13:26.852Z,80.45
2022-11-29T10:14:18.114Z,79.86
2022-11-29T10:15:20.230Z,79.98
2022-11-29T10:16:32.223Z,80.62
2022-11-29T10:17:39.541Z,80.84
2022-11-29T10:18:35.712Z,79.74
2022-11-29T10:19:33.388Z,80.08
2022-11-29T10:20:23.338Z,80.23
2022-11-29T10:21:16.512Z,79.80
2022-11-29T10:22:26.951Z,79.70
2022-11-29T10:23:26.228Z,80.33
2022-11-29T10:24:18.018Z,80.62
2022-11-29T10:25:07.241Z,80.18
2022-11-29T10:25:55.882Z,80.73
2022-11-29T10:26:43.681Z,80.97
2022-11-29T10:27:30.923Z,80.72
2022-11-29T10:28:20.186Z,80.91
2022-11-29T10:29:07.257Z,80.76
2022-11-29T10:29:54.591Z,81.01
2022-11-29T10:30:42.167Z,80.72
2022-11-29T10:31:36.858Z,80.26
2022-11-29T10:32:25.576Z,80.22
2022-11-29T10:33:21.421Z,79.51
2022-11-29T10:34:14.216Z,80.53
2022-11-29T10:35:01.878Z,80.64
2022-11-29T10:35:51.575Z,80.56
2022-11-29T10:36:49.312Z,80.15
2022-11-29T10:37:36.165Z,80.45
2022-11-29T10:38:32.030Z,80.75
2022-11-29T10:39:44.214Z,80.72
2022-11-29T10:40:34.547Z,80.48
2022-11-29T10:41:23.261Z,80.05
2022-11-29T10:42:35.726Z,80.25
2022-11-29T10:43:26.544Z,80.43
2022-11-29T10:44:15.672Z,80.71
2022-11-29T10:45:03.556Z,80.46
2022-11-29T10:45:56.307Z,81.06
2022-11-29T10:46:43.407Z,81.33
2022-11-29T10:47:31.600Z,80.65
2022-11-29T10:48:20.454Z,80.21
2022-11-29T10:49:12.524Z,79.90
2022-11-29T10:49:59.673Z,80.04
2022-11-29T10:50:48.909Z,79.63
2022-11-29T10:51:36.213Z,79.27
2022-11-29T10:52:24.316Z,79.74
2022-11-29T10:53:12.651Z,80.08
2022-11-29T10:54:27.060Z,79.88
2022-11-29T10:55:17.721Z,80.26
2022-11-29T10:56:06.483Z,80.05
2022-11-29T10:56:55.773Z,80.15
2022-11-29T10:58:08.215Z,80.62
2022-11-29T10:59:08.083Z,81.03
2022-11-29T11:00:15.445Z,80.15
2022-11-29T11:01:06.896Z,80.25
2022-11-29T11:01:54.638Z,80.83
2022-11-29T11:02:42.287Z,80.61
2022-11-29T11:03:37.201Z,80.72
2022-11-29T11:04:34.597Z,80.59
2022-11-29T11:05:26.631Z,80.55
2022-11-29T11:06:16.484Z,80.93
2022-11-29T11:07:05.373Z,80.61
2022-11-29T11:07:59.314Z,80.53
2022-11-29T11:08:53.181Z,81.14
2022-11-29T11:09:47.919Z,80.34
2022-11-29T11:10:34.736Z,80.13
2022-11-29T11:11:32.768Z,80.04
2022-11-29T11:12:22.746Z,79.57
2022-11-29T11:13:23.182Z,79.44
2022-11-29T11:14:41.707Z,79.12
2022-11-29T11:15:30.845Z,79.67
2022-11-29T11:16:20.316Z,79.52
2022-11-29T11:17:28.187Z,79.51
2022-11-29T11:18:23.896Z,79.71
2022-11-29T11:19:25.980Z,79.35
2022-11-29T11:20:23.233Z,79.01
2022-11-29T11:21:12.339Z,78.97
2022-11-29T11:22:01.472Z,79.02
2022-11-29T11:23:08.318Z,78.77
2022-11-29T11:24:02.251Z,78.55
2022-11-29T11:25:00.553Z,78.72
2022-11-29T11:25:52.293Z,78.47
2022-11-29T11:26:44.041Z,77.28
2022-11-29T11:27:40.383Z,77.39
2022-11-29T11:28:29.767Z,78.06
2022-11-29T11:29:19.274Z,77.38
2022-11-29T11:30:24.880Z,77.01
2022-11-29T11:31:13.004Z,77.57
2022-11-29T11:32:00.383Z,77.61
2022-11-29T11:33:09.462Z,76.73
2022-11-29T11:33:56.981Z,77.33
2022-11-29T11:35:03.013Z,77.62
2022-11-29T11:36:23.004Z,77.73
2022-11-29T11:37:15.736Z,76.97
2022-11-29T11:38:02.543Z,76.50
2022-11-29T11:38:59.314Z,76.85
2022-11-29T11:39:48.395Z,77.27
2022-11-29T11:40:35.283Z,76.76
2022-11-29T11:41:48.599Z,76.19
2022-11-29T11:42:39.393Z,76.27
2022-11-29T11:43:26.341Z,76.27
2022-11-29T11:44:47.441Z,76.78
2022-11-29T11:45:51.952Z,76.44
2022-11-29T11:46:50.420Z,76.37
2022-11-29T11:48:02.504Z,75.06
2022-11-29T11:48:50.456Z,75.38
2022-11-29T11:49:50.121Z,74.16
2022-11-29T11:50:43.119Z,73.99
2022-11-29T11:51:30.375Z,74.20
2022-11-29T11:52:26.571Z,74.44
2022-11-29T11:53:27.811Z,73.52
2022-11-29T11:54:15.765Z,74.13
2022-11-29T11:55:08.213Z,74.08
2022-11-29T11:56:01.495Z,74.05
2022-11-29T11:56:48.599Z,73.63
2022-11-29T11:57:35.760Z,73.59
2022-11-29T11:58:24.508Z,73.80
2022-11-29T11:59:24.519Z,74.27
2022-11-29T12:01:05.885Z,73.55
2022-11-29T12:01:52.905Z,73.48
2022-11-29T12:02:42.806Z,74.04
2022-11-29T12:03:57.651Z,74.02
2022-11-29T12:04:44.692Z,73.64
2022-11-29T12:05:31.982Z,73.98
2022-11-29T12:06:40.235Z,73.48
2022-11-29T12:08:06.192Z,74.16
2022-11-29T12:08:44.080Z,72.66